sensor_id;sensor_type;location;lat;lon;timestamp;pressure;altitude;pressure_sealevel;temperature;humidity
33191;BME280;19554;42.652;23.364;2023-04-24T00:01:29;94380.22;;;13.57;48.13
33191;BME280;19554;42.652;23.364;2023-04-24T00:03:55;94325.13;;;13.33;48.20
33191;BME280;19554;42.652;23.364;2023-04-24T00:06:25;94336.94;;;13.32;48.15
33191;BME280;19554;42.652;23.364;2023-04-24T00:08:58;94374.28;;;13.68;48.70
33191;BME280;19554;42.652;23.364;2023-04-24T00:11:23;94368.44;;;13.75;49.34
33191;BME280;19554;42.652;23.364;2023-04-24T00:13:49;94365.44;;;13.77;50.15
33191;BME280;19554;42.652;23.364;2023-04-24T00:16:14;94365.84;;;13.44;49.52
33191;BME280;19554;42.652;23.364;2023-04-24T00:18:40;94358.13;;;13.51;49.35
33191;BME280;19554;42.652;23.364;2023-04-24T00:21:06;94353.84;;;13.41;50.08
33191;BME280;19554;42.652;23.364;2023-04-24T00:23:32;94343.59;;;13.43;50.45
33191;BME280;19554;42.652;23.364;2023-04-24T00:25:57;94350.75;;;13.17;50.67
33191;BME280;19554;42.652;23.364;2023-04-24T00:28:23;94269.59;;;12.45;51.67
33191;BME280;19554;42.652;23.364;2023-04-24T00:30:48;94354.50;;;12.76;51.81
33191;BME280;19554;42.652;23.364;2023-04-24T00:33:13;94351.06;;;12.53;52.42
33191;BME280;19554;42.652;23.364;2023-04-24T00:35:39;94321.69;;;11.94;52.61
33191;BME280;19554;42.652;23.364;2023-04-24T00:38:05;94357.56;;;11.93;52.99
33191;BME280;19554;42.652;23.364;2023-04-24T00:40:31;94319.56;;;11.55;53.47
33191;BME280;19554;42.652;23.364;2023-04-24T00:42:56;94346.66;;;11.62;54.15
33191;BME280;19554;42.652;23.364;2023-04-24T00:45:22;94351.53;;;11.60;54.41
33191;BME280;19554;42.652;23.364;2023-04-24T00:47:48;94356.47;;;11.67;54.07
33191;BME280;19554;42.652;23.364;2023-04-24T00:50:15;94357.25;;;11.81;54.20
33191;BME280;19554;42.652;23.364;2023-04-24T00:52:40;94358.91;;;12.04;54.38
33191;BME280;19554;42.652;23.364;2023-04-24T00:55:06;94358.44;;;12.25;53.81
33191;BME280;19554;42.652;23.364;2023-04-24T00:57:32;94344.97;;;12.39;53.84
33191;BME280;19554;42.652;23.364;2023-04-24T00:59:58;94350.94;;;12.36;53.77
33191;BME280;19554;42.652;23.364;2023-04-24T01:02:24;94361.44;;;12.54;54.05
33191;BME280;19554;42.652;23.364;2023-04-24T01:04:50;94357.19;;;12.53;54.54
33191;BME280;19554;42.652;23.364;2023-04-24T01:07:19;94364.69;;;12.65;54.35
33191;BME280;19554;42.652;23.364;2023-04-24T01:09:47;94358.91;;;12.72;54.66
33191;BME280;19554;42.652;23.364;2023-04-24T01:12:14;94359.72;;;12.81;54.85
33191;BME280;19554;42.652;23.364;2023-04-24T01:14:40;94319.34;;;12.46;55.89
33191;BME280;19554;42.652;23.364;2023-04-24T01:17:06;94345.97;;;12.74;54.75
33191;BME280;19554;42.652;23.364;2023-04-24T01:19:32;94339.41;;;12.80;53.65
33191;BME280;19554;42.652;23.364;2023-04-24T01:21:58;94344.66;;;12.94;53.33
33191;BME280;19554;42.652;23.364;2023-04-24T01:24:27;94321.66;;;12.93;53.19
33191;BME280;19554;42.652;23.364;2023-04-24T01:26:53;94314.75;;;13.00;52.83
33191;BME280;19554;42.652;23.364;2023-04-24T01:29:19;94325.38;;;13.23;53.09
33191;BME280;19554;42.652;23.364;2023-04-24T01:31:44;94326.91;;;13.07;53.56
33191;BME280;19554;42.652;23.364;2023-04-24T01:34:10;94325.84;;;12.85;54.35
33191;BME280;19554;42.652;23.364;2023-04-24T01:36:36;94322.63;;;12.66;53.62
33191;BME280;19554;42.652;23.364;2023-04-24T01:39:02;94328.00;;;12.43;54.31
33191;BME280;19554;42.652;23.364;2023-04-24T01:41:29;94312.69;;;12.35;56.29
33191;BME280;19554;42.652;23.364;2023-04-24T01:43:55;94312.13;;;12.02;55.74
33191;BME280;19554;42.652;23.364;2023-04-24T01:46:22;94314.03;;;12.01;56.37
33191;BME280;19554;42.652;23.364;2023-04-24T01:48:47;94314.38;;;12.08;55.91
33191;BME280;19554;42.652;23.364;2023-04-24T01:51:13;94320.88;;;12.16;54.67
33191;BME280;19554;42.652;23.364;2023-04-24T01:53:38;94317.97;;;12.26;54.71
33191;BME280;19554;42.652;23.364;2023-04-24T01:56:04;94314.25;;;12.36;55.00
33191;BME280;19554;42.652;23.364;2023-04-24T01:58:30;94306.13;;;12.41;55.27
33191;BME280;19554;42.652;23.364;2023-04-24T02:00:56;94294.41;;;12.37;55.13
33191;BME280;19554;42.652;23.364;2023-04-24T02:03:25;94294.25;;;12.33;54.72
33191;BME280;19554;42.652;23.364;2023-04-24T02:05:50;94309.44;;;12.47;53.83
33191;BME280;19554;42.652;23.364;2023-04-24T02:08:15;94312.78;;;12.52;54.40
33191;BME280;19554;42.652;23.364;2023-04-24T02:10:41;94309.34;;;12.61;55.15
33191;BME280;19554;42.652;23.364;2023-04-24T02:13:06;94293.91;;;12.57;56.01
33191;BME280;19554;42.652;23.364;2023-04-24T02:15:32;94311.91;;;12.66;56.32
33191;BME280;19554;42.652;23.364;2023-04-24T02:17:57;94309.69;;;12.68;56.04
33191;BME280;19554;42.652;23.364;2023-04-24T02:20:22;94303.22;;;12.60;55.95
33191;BME280;19554;42.652;23.364;2023-04-24T02:22:48;94286.38;;;12.60;55.76
33191;BME280;19554;42.652;23.364;2023-04-24T02:25:13;94303.44;;;12.72;55.31
33191;BME280;19554;42.652;23.364;2023-04-24T02:27:39;94311.47;;;12.72;54.96
33191;BME280;19554;42.652;23.364;2023-04-24T02:30:05;94303.56;;;12.67;55.16
33191;BME280;19554;42.652;23.364;2023-04-24T02:32:31;94290.06;;;12.41;55.56
33191;BME280;19554;42.652;23.364;2023-04-24T02:34:56;94302.00;;;12.44;55.88
33191;BME280;19554;42.652;23.364;2023-04-24T02:37:21;94282.91;;;12.28;56.07
33191;BME280;19554;42.652;23.364;2023-04-24T02:39:47;94305.72;;;12.34;55.89
33191;BME280;19554;42.652;23.364;2023-04-24T02:42:12;94289.31;;;12.27;55.83
33191;BME280;19554;42.652;23.364;2023-04-24T02:44:37;94284.84;;;12.14;55.80
33191;BME280;19554;42.652;23.364;2023-04-24T02:47:03;94284.09;;;11.99;56.42
33191;BME280;19554;42.652;23.364;2023-04-24T02:49:29;94287.16;;;11.84;56.81
33191;BME280;19554;42.652;23.364;2023-04-24T02:51:54;94255.91;;;11.57;56.90
33191;BME280;19554;42.652;23.364;2023-04-24T02:54:19;94282.38;;;11.81;57.26
33191;BME280;19554;42.652;23.364;2023-04-24T02:56:45;94292.09;;;11.77;57.24
33191;BME280;19554;42.652;23.364;2023-04-24T02:59:10;94283.66;;;11.47;57.62
33191;BME280;19554;42.652;23.364;2023-04-24T03:01:36;94236.81;;;11.13;57.48
33191;BME280;19554;42.652;23.364;2023-04-24T03:04:01;94215.66;;;11.03;57.56
33191;BME280;19554;42.652;23.364;2023-04-24T03:06:27;94299.06;;;11.64;58.25
33191;BME280;19554;42.652;23.364;2023-04-24T03:08:52;94298.66;;;11.71;58.64
33191;BME280;19554;42.652;23.364;2023-04-24T03:11:18;94299.00;;;11.78;58.22
33191;BME280;19554;42.652;23.364;2023-04-24T03:13:43;94296.47;;;11.87;58.02
33191;BME280;19554;42.652;23.364;2023-04-24T03:16:09;94295.03;;;11.89;57.97
33191;BME280;19554;42.652;23.364;2023-04-24T03:18:34;94296.63;;;11.90;57.82
33191;BME280;19554;42.652;23.364;2023-04-24T03:21:00;94299.41;;;11.85;57.64
33191;BME280;19554;42.652;23.364;2023-04-24T03:23:25;94292.25;;;11.94;57.46
33191;BME280;19554;42.652;23.364;2023-04-24T03:25:51;94297.00;;;11.97;57.13
33191;BME280;19554;42.652;23.364;2023-04-24T03:28:16;94292.72;;;11.96;57.13
33191;BME280;19554;42.652;23.364;2023-04-24T03:30:42;94295.16;;;12.06;56.90
33191;BME280;19554;42.652;23.364;2023-04-24T03:33:07;94294.56;;;12.09;56.81
33191;BME280;19554;42.652;23.364;2023-04-24T03:35:32;94299.31;;;12.13;56.74
33191;BME280;19554;42.652;23.364;2023-04-24T03:37:58;94299.31;;;12.13;56.81
33191;BME280;19554;42.652;23.364;2023-04-24T03:40:23;94293.00;;;12.08;57.10
33191;BME280;19554;42.652;23.364;2023-04-24T03:42:48;94301.19;;;12.12;56.88
33191;BME280;19554;42.652;23.364;2023-04-24T03:45:14;94298.53;;;12.12;56.96
33191;BME280;19554;42.652;23.364;2023-04-24T03:47:39;94287.63;;;12.08;57.21
33191;BME280;19554;42.652;23.364;2023-04-24T03:50:05;94300.09;;;12.13;57.16
33191;BME280;19554;42.652;23.364;2023-04-24T03:52:30;94294.91;;;12.17;57.13
33191;BME280;19554;42.652;23.364;2023-04-24T03:54:56;94287.75;;;12.26;57.00
33191;BME280;19554;42.652;23.364;2023-04-24T03:57:21;94233.28;;;11.99;56.72
33191;BME280;19554;42.652;23.364;2023-04-24T03:59:47;94300.84;;;12.59;56.39
33191;BME280;19554;42.652;23.364;2023-04-24T04:02:12;94296.84;;;12.78;55.95
33191;BME280;19554;42.652;23.364;2023-04-24T04:04:37;94288.72;;;12.92;55.64
33191;BME280;19554;42.652;23.364;2023-04-24T04:07:03;94293.50;;;13.13;54.98
33191;BME280;19554;42.652;23.364;2023-04-24T04:09:29;94297.34;;;13.29;55.01
33191;BME280;19554;42.652;23.364;2023-04-24T04:11:54;94247.81;;;13.18;54.30
33191;BME280;19554;42.652;23.364;2023-04-24T04:14:21;94296.63;;;13.63;53.73
33191;BME280;19554;42.652;23.364;2023-04-24T04:16:46;94307.38;;;13.72;53.70
33191;BME280;19554;42.652;23.364;2023-04-24T04:19:12;94290.19;;;13.73;53.32
33191;BME280;19554;42.652;23.364;2023-04-24T04:21:37;94308.81;;;13.78;53.31
33191;BME280;19554;42.652;23.364;2023-04-24T04:24:02;94302.66;;;13.86;53.21
33191;BME280;19554;42.652;23.364;2023-04-24T04:26:28;94310.69;;;13.86;53.02
33191;BME280;19554;42.652;23.364;2023-04-24T04:28:53;94292.72;;;13.78;53.10
33191;BME280;19554;42.652;23.364;2023-04-24T04:31:19;94311.00;;;13.93;53.15
33191;BME280;19554;42.652;23.364;2023-04-24T04:33:46;94310.38;;;13.88;53.48
33191;BME280;19554;42.652;23.364;2023-04-24T04:36:11;94309.59;;;13.79;53.50
33191;BME280;19554;42.652;23.364;2023-04-24T04:38:37;94306.38;;;13.42;54.43
33191;BME280;19554;42.652;23.364;2023-04-24T04:41:03;94305.88;;;13.31;54.77
33191;BME280;19554;42.652;23.364;2023-04-24T04:43:28;94312.50;;;13.25;54.20
33191;BME280;19554;42.652;23.364;2023-04-24T04:45:53;94315.41;;;13.06;53.74
33191;BME280;19554;42.652;23.364;2023-04-24T04:48:21;94309.09;;;12.71;54.11
33191;BME280;19554;42.652;23.364;2023-04-24T04:50:46;94247.75;;;12.21;54.59
33191;BME280;19554;42.652;23.364;2023-04-24T04:53:12;94335.66;;;12.59;54.28
33191;BME280;19554;42.652;23.364;2023-04-24T04:55:37;94262.84;;;11.94;55.09
33191;BME280;19554;42.652;23.364;2023-04-24T04:58:03;94334.56;;;12.37;53.66
33191;BME280;19554;42.652;23.364;2023-04-24T05:00:28;94289.44;;;11.99;54.42
33191;BME280;19554;42.652;23.364;2023-04-24T05:02:58;94326.53;;;12.37;55.19
33191;BME280;19554;42.652;23.364;2023-04-24T05:05:24;94335.88;;;12.71;54.63
33191;BME280;19554;42.652;23.364;2023-04-24T05:07:49;94333.63;;;12.64;54.13
33191;BME280;19554;42.652;23.364;2023-04-24T05:10:15;94333.06;;;12.45;54.76
33191;BME280;19554;42.652;23.364;2023-04-24T05:12:40;94332.13;;;12.27;55.53
33191;BME280;19554;42.652;23.364;2023-04-24T05:15:06;94338.72;;;12.21;53.94
33191;BME280;19554;42.652;23.364;2023-04-24T05:17:31;94319.75;;;12.08;54.10
33191;BME280;19554;42.652;23.364;2023-04-24T05:19:58;94335.06;;;12.17;53.10
33191;BME280;19554;42.652;23.364;2023-04-24T05:22:23;94331.31;;;12.18;53.01
33191;BME280;19554;42.652;23.364;2023-04-24T05:24:49;94307.28;;;12.04;53.49
33191;BME280;19554;42.652;23.364;2023-04-24T05:27:14;94339.94;;;12.15;53.20
33191;BME280;19554;42.652;23.364;2023-04-24T05:29:40;94296.34;;;11.78;53.59
33191;BME280;19554;42.652;23.364;2023-04-24T05:32:06;94313.47;;;11.91;54.13
33191;BME280;19554;42.652;23.364;2023-04-24T05:34:32;94240.09;;;11.47;54.16
33191;BME280;19554;42.652;23.364;2023-04-24T05:36:57;94333.25;;;12.03;53.98
33191;BME280;19554;42.652;23.364;2023-04-24T05:39:22;94336.03;;;11.98;54.30
33191;BME280;19554;42.652;23.364;2023-04-24T05:41:50;94316.44;;;11.89;53.76
33191;BME280;19554;42.652;23.364;2023-04-24T05:44:15;94338.97;;;12.11;53.90
33191;BME280;19554;42.652;23.364;2023-04-24T05:46:40;94341.16;;;12.31;53.71
33191;BME280;19554;42.652;23.364;2023-04-24T05:49:06;94297.25;;;12.32;53.14
33191;BME280;19554;42.652;23.364;2023-04-24T05:51:31;94342.44;;;12.65;52.40
33191;BME280;19554;42.652;23.364;2023-04-24T05:53:57;94317.09;;;12.62;52.30
33191;BME280;19554;42.652;23.364;2023-04-24T05:56:22;94335.59;;;12.81;51.59
33191;BME280;19554;42.652;23.364;2023-04-24T05:58:48;94337.47;;;13.03;52.14
33191;BME280;19554;42.652;23.364;2023-04-24T06:01:13;94316.88;;;13.21;51.67
33191;BME280;19554;42.652;23.364;2023-04-24T06:03:43;94290.47;;;13.45;50.05
33191;BME280;19554;42.652;23.364;2023-04-24T06:06:08;94235.56;;;13.43;49.42
33191;BME280;19554;42.652;23.364;2023-04-24T06:08:34;94335.66;;;13.95;48.98
33191;BME280;19554;42.652;23.364;2023-04-24T06:11:00;94248.50;;;13.49;48.64
33191;BME280;19554;42.652;23.364;2023-04-24T06:13:25;94335.34;;;13.88;48.80
33191;BME280;19554;42.652;23.364;2023-04-24T06:15:51;94333.09;;;13.90;49.12
33191;BME280;19554;42.652;23.364;2023-04-24T06:18:16;94329.19;;;14.05;48.80
33191;BME280;19554;42.652;23.364;2023-04-24T06:20:42;94326.00;;;13.94;48.89
33191;BME280;19554;42.652;23.364;2023-04-24T06:23:07;94334.41;;;14.19;48.65
33191;BME280;19554;42.652;23.364;2023-04-24T06:25:33;94335.34;;;14.23;48.42
33191;BME280;19554;42.652;23.364;2023-04-24T06:27:58;94336.88;;;14.59;47.83
33191;BME280;19554;42.652;23.364;2023-04-24T06:30:23;94336.78;;;14.93;46.97
33191;BME280;19554;42.652;23.364;2023-04-24T06:32:49;94332.22;;;15.32;46.68
33191;BME280;19554;42.652;23.364;2023-04-24T06:35:14;94335.28;;;15.52;45.90
33191;BME280;19554;42.652;23.364;2023-04-24T06:37:41;94319.88;;;15.61;46.09
33191;BME280;19554;42.652;23.364;2023-04-24T06:40:07;94326.84;;;15.92;44.98
33191;BME280;19554;42.652;23.364;2023-04-24T06:42:32;94324.22;;;16.04;44.55
33191;BME280;19554;42.652;23.364;2023-04-24T06:44:58;94327.75;;;15.96;44.78
33191;BME280;19554;42.652;23.364;2023-04-24T06:47:23;94329.97;;;16.35;44.27
33191;BME280;19554;42.652;23.364;2023-04-24T06:49:49;94318.25;;;16.52;44.02
33191;BME280;19554;42.652;23.364;2023-04-24T06:52:16;94333.47;;;16.69;43.06
33191;BME280;19554;42.652;23.364;2023-04-24T06:54:41;94333.09;;;16.58;43.71
33191;BME280;19554;42.652;23.364;2023-04-24T06:57:08;94335.44;;;16.48;43.35
33191;BME280;19554;42.652;23.364;2023-04-24T06:59:33;94334.34;;;16.07;44.08
33191;BME280;19554;42.652;23.364;2023-04-24T07:01:58;94334.59;;;16.14;43.71
33191;BME280;19554;42.652;23.364;2023-04-24T07:04:24;94330.00;;;15.94;44.37
33191;BME280;19554;42.652;23.364;2023-04-24T07:06:50;94319.41;;;15.88;44.66
33191;BME280;19554;42.652;23.364;2023-04-24T07:09:16;94297.56;;;15.69;44.52
33191;BME280;19554;42.652;23.364;2023-04-24T07:11:44;94320.06;;;15.85;45.14
33191;BME280;19554;42.652;23.364;2023-04-24T07:14:09;94317.91;;;16.00;44.75
33191;BME280;19554;42.652;23.364;2023-04-24T07:16:35;94308.63;;;16.30;43.86
33191;BME280;19554;42.652;23.364;2023-04-24T07:19:00;94314.59;;;16.36;43.92
33191;BME280;19554;42.652;23.364;2023-04-24T07:21:26;94274.44;;;16.43;44.21
33191;BME280;19554;42.652;23.364;2023-04-24T07:23:52;94296.00;;;16.76;43.44
33191;BME280;19554;42.652;23.364;2023-04-24T07:26:17;94318.75;;;17.24;42.63
33191;BME280;19554;42.652;23.364;2023-04-24T07:28:43;94312.59;;;17.24;41.70
33191;BME280;19554;42.652;23.364;2023-04-24T07:31:10;94303.81;;;17.27;41.42
33191;BME280;19554;42.652;23.364;2023-04-24T07:33:36;94307.50;;;17.59;41.04
33191;BME280;19554;42.652;23.364;2023-04-24T07:36:01;94303.22;;;17.70;40.72
33191;BME280;19554;42.652;23.364;2023-04-24T07:38:29;94271.53;;;17.55;40.52
33191;BME280;19554;42.652;23.364;2023-04-24T07:40:54;94296.03;;;17.87;40.28
33191;BME280;19554;42.652;23.364;2023-04-24T07:43:20;94254.28;;;17.84;40.54
33191;BME280;19554;42.652;23.364;2023-04-24T07:45:46;94224.94;;;17.70;40.11
33191;BME280;19554;42.652;23.364;2023-04-24T07:48:12;94228.56;;;17.74;39.75
33191;BME280;19554;42.652;23.364;2023-04-24T07:50:40;94293.13;;;17.80;40.13
33191;BME280;19554;42.652;23.364;2023-04-24T07:53:05;94257.91;;;17.64;40.47
33191;BME280;19554;42.652;23.364;2023-04-24T07:55:30;94243.63;;;17.75;40.56
33191;BME280;19554;42.652;23.364;2023-04-24T07:57:56;94275.66;;;18.30;40.82
33191;BME280;19554;42.652;23.364;2023-04-24T08:00:21;94274.75;;;18.69;39.45
33191;BME280;19554;42.652;23.364;2023-04-24T08:02:47;94280.59;;;18.84;38.82
33191;BME280;19554;42.652;23.364;2023-04-24T08:05:12;94273.06;;;18.93;39.37
33191;BME280;19554;42.652;23.364;2023-04-24T08:07:38;94283.81;;;18.61;38.40
33191;BME280;19554;42.652;23.364;2023-04-24T08:10:04;94261.81;;;18.75;37.90
33191;BME280;19554;42.652;23.364;2023-04-24T08:12:30;94277.72;;;19.08;37.41
33191;BME280;19554;42.652;23.364;2023-04-24T08:14:55;94267.84;;;19.32;37.21
33191;BME280;19554;42.652;23.364;2023-04-24T08:17:21;94265.00;;;19.44;37.17
33191;BME280;19554;42.652;23.364;2023-04-24T08:19:46;94265.13;;;19.32;37.16
33191;BME280;19554;42.652;23.364;2023-04-24T08:22:16;94194.19;;;18.59;37.57
33191;BME280;19554;42.652;23.364;2023-04-24T08:24:41;94261.47;;;18.92;37.77
33191;BME280;19554;42.652;23.364;2023-04-24T08:27:08;94207.13;;;18.82;37.89
33191;BME280;19554;42.652;23.364;2023-04-24T08:29:33;94248.38;;;19.42;37.22
33191;BME280;19554;42.652;23.364;2023-04-24T08:31:59;94251.66;;;19.67;37.74
33191;BME280;19554;42.652;23.364;2023-04-24T08:34:24;94261.44;;;19.56;37.57
33191;BME280;19554;42.652;23.364;2023-04-24T08:36:50;94255.06;;;19.48;37.35
33191;BME280;19554;42.652;23.364;2023-04-24T08:39:17;94243.25;;;19.05;37.74
33191;BME280;19554;42.652;23.364;2023-04-24T08:41:43;94250.03;;;18.99;38.36
33191;BME280;19554;42.652;23.364;2023-04-24T08:44:09;94188.16;;;18.34;39.05
33191;BME280;19554;42.652;23.364;2023-04-24T08:46:35;94256.66;;;18.86;38.82
33191;BME280;19554;42.652;23.364;2023-04-24T08:49:02;94238.28;;;18.91;38.96
33191;BME280;19554;42.652;23.364;2023-04-24T08:51:27;94250.56;;;18.89;39.06
33191;BME280;19554;42.652;23.364;2023-04-24T08:53:55;94156.00;;;18.45;38.86
33191;BME280;19554;42.652;23.364;2023-04-24T08:56:21;94234.31;;;19.21;38.36
33191;BME280;19554;42.652;23.364;2023-04-24T08:58:50;94220.22;;;19.11;38.25
33191;BME280;19554;42.652;23.364;2023-04-24T09:01:16;94225.75;;;19.34;37.82
33191;BME280;19554;42.652;23.364;2023-04-24T09:03:43;94216.44;;;19.32;37.94
33191;BME280;19554;42.652;23.364;2023-04-24T09:06:09;94126.53;;;18.40;38.14
33191;BME280;19554;42.652;23.364;2023-04-24T09:08:36;94210.28;;;19.35;37.56
33191;BME280;19554;42.652;23.364;2023-04-24T09:11:03;94215.75;;;19.19;37.94
33191;BME280;19554;42.652;23.364;2023-04-24T09:13:30;94199.59;;;19.23;37.96
33191;BME280;19554;42.652;23.364;2023-04-24T09:15:55;94211.31;;;18.95;38.31
33191;BME280;19554;42.652;23.364;2023-04-24T09:18:22;94207.66;;;18.72;39.10
33191;BME280;19554;42.652;23.364;2023-04-24T09:20:58;94212.94;;;18.68;39.17
33191;BME280;19554;42.652;23.364;2023-04-24T09:23:26;94209.34;;;18.48;38.91
33191;BME280;19554;42.652;23.364;2023-04-24T09:25:54;94205.81;;;18.32;39.98
33191;BME280;19554;42.652;23.364;2023-04-24T09:31:12;94192.69;;;18.30;39.58
33191;BME280;19554;42.652;23.364;2023-04-24T09:33:39;94125.63;;;18.04;39.55
33191;BME280;19554;42.652;23.364;2023-04-24T09:36:05;94183.78;;;18.45;40.16
33191;BME280;19554;42.652;23.364;2023-04-24T09:38:35;94174.56;;;18.62;39.66
33191;BME280;19554;42.652;23.364;2023-04-24T09:41:02;94183.94;;;18.81;38.71
33191;BME280;19554;42.652;23.364;2023-04-24T09:43:29;94179.28;;;18.97;39.10
33191;BME280;19554;42.652;23.364;2023-04-24T09:45:56;94160.25;;;19.09;39.25
33191;BME280;19554;42.652;23.364;2023-04-24T09:48:35;94146.72;;;19.09;38.78
33191;BME280;19554;42.652;23.364;2023-04-24T09:51:02;94180.69;;;19.42;38.58
33191;BME280;19554;42.652;23.364;2023-04-24T09:53:29;94156.59;;;19.37;37.64
33191;BME280;19554;42.652;23.364;2023-04-24T09:55:55;94167.03;;;19.54;37.64
33191;BME280;19554;42.652;23.364;2023-04-24T09:58:28;94170.25;;;19.60;37.44
33191;BME280;19554;42.652;23.364;2023-04-24T10:00:55;94165.06;;;19.71;37.97
33191;BME280;19554;42.652;23.364;2023-04-24T10:03:21;94157.50;;;19.60;37.81
33191;BME280;19554;42.652;23.364;2023-04-24T10:05:46;94160.75;;;19.50;37.97
33191;BME280;19554;42.652;23.364;2023-04-24T10:08:13;94153.94;;;19.56;37.21
33191;BME280;19554;42.652;23.364;2023-04-24T10:10:42;94143.94;;;19.60;37.72
33191;BME280;19554;42.652;23.364;2023-04-24T10:13:12;94142.13;;;19.84;37.68
33191;BME280;19554;42.652;23.364;2023-04-24T10:15:39;94138.66;;;20.06;37.37
33191;BME280;19554;42.652;23.364;2023-04-24T10:18:06;94122.56;;;20.36;37.21
33191;BME280;19554;42.652;23.364;2023-04-24T10:20:32;94128.84;;;20.64;36.00
33191;BME280;19554;42.652;23.364;2023-04-24T10:22:59;94118.84;;;20.68;36.02
33191;BME280;19554;42.652;23.364;2023-04-24T10:25:27;94120.38;;;20.65;35.13
33191;BME280;19554;42.652;23.364;2023-04-24T10:27:54;94106.63;;;20.54;34.56
33191;BME280;19554;42.652;23.364;2023-04-24T10:30:22;94121.84;;;20.40;35.45
33191;BME280;19554;42.652;23.364;2023-04-24T10:32:48;94098.22;;;20.40;34.80
33191;BME280;19554;42.652;23.364;2023-04-24T10:35:14;94122.28;;;19.99;35.63
33191;BME280;19554;42.652;23.364;2023-04-24T10:37:44;94107.88;;;20.15;35.00
33191;BME280;19554;42.652;23.364;2023-04-24T10:40:11;94055.63;;;19.72;35.37
33191;BME280;19554;42.652;23.364;2023-04-24T10:42:40;94109.44;;;20.16;35.38
33191;BME280;19554;42.652;23.364;2023-04-24T10:45:19;94106.63;;;19.89;35.64
33191;BME280;19554;42.652;23.364;2023-04-24T10:48:09;94097.66;;;19.85;35.79
33191;BME280;19554;42.652;23.364;2023-04-24T10:53:13;94092.09;;;19.39;35.83
33191;BME280;19554;42.652;23.364;2023-04-24T10:58:07;94089.94;;;19.48;35.42
33191;BME280;19554;42.652;23.364;2023-04-24T11:00:36;94091.38;;;19.61;35.27
33191;BME280;19554;42.652;23.364;2023-04-24T11:03:04;94082.41;;;19.77;34.56
33191;BME280;19554;42.652;23.364;2023-04-24T11:05:54;94078.56;;;19.78;34.56
33191;BME280;19554;42.652;23.364;2023-04-24T11:08:31;94069.53;;;19.70;34.77
33191;BME280;19554;42.652;23.364;2023-04-24T11:11:03;94071.94;;;19.75;35.07
33191;BME280;19554;42.652;23.364;2023-04-24T11:16:26;94066.41;;;19.91;34.65
33191;BME280;19554;42.652;23.364;2023-04-24T11:19:02;94021.06;;;19.65;34.50
33191;BME280;19554;42.652;23.364;2023-04-24T11:26:53;94053.97;;;19.86;33.21
33191;BME280;19554;42.652;23.364;2023-04-24T11:29:20;94088.66;;;20.00;33.29
33191;BME280;19554;42.652;23.364;2023-04-24T11:31:47;94095.78;;;19.89;34.11
33191;BME280;19554;42.652;23.364;2023-04-24T11:34:15;93999.81;;;18.70;36.22
33191;BME280;19554;42.652;23.364;2023-04-24T11:36:45;94093.25;;;19.03;37.61
33191;BME280;19554;42.652;23.364;2023-04-24T11:39:11;94113.25;;;18.98;38.07
33191;BME280;19554;42.652;23.364;2023-04-24T11:41:37;94108.38;;;18.88;37.48
33191;BME280;19554;42.652;23.364;2023-04-24T11:44:06;94095.75;;;18.60;37.47
33191;BME280;19554;42.652;23.364;2023-04-24T11:46:31;94106.22;;;18.78;37.07
33191;BME280;19554;42.652;23.364;2023-04-24T11:48:58;94042.16;;;18.31;37.82
33191;BME280;19554;42.652;23.364;2023-04-24T11:51:25;94111.88;;;18.73;39.59
33191;BME280;19554;42.652;23.364;2023-04-24T11:53:51;94115.72;;;18.72;40.49
33191;BME280;19554;42.652;23.364;2023-04-24T11:56:18;94106.47;;;18.73;40.73
33191;BME280;19554;42.652;23.364;2023-04-24T11:58:45;94064.97;;;18.49;42.12
33191;BME280;19554;42.652;23.364;2023-04-24T12:01:11;94002.97;;;18.05;42.56
33191;BME280;19554;42.652;23.364;2023-04-24T12:03:36;94088.50;;;18.64;42.35
33191;BME280;19554;42.652;23.364;2023-04-24T12:06:06;94085.44;;;18.66;42.67
33191;BME280;19554;42.652;23.364;2023-04-24T12:08:35;94091.47;;;18.59;41.79
33191;BME280;19554;42.652;23.364;2023-04-24T12:11:02;94082.25;;;18.60;42.01
33191;BME280;19554;42.652;23.364;2023-04-24T12:13:28;94074.13;;;18.60;41.34
33191;BME280;19554;42.652;23.364;2023-04-24T12:15:53;94069.47;;;18.77;41.46
33191;BME280;19554;42.652;23.364;2023-04-24T12:18:22;94064.81;;;18.74;41.55
33191;BME280;19554;42.652;23.364;2023-04-24T12:20:48;94069.66;;;18.84;41.96
33191;BME280;19554;42.652;23.364;2023-04-24T12:23:13;94073.03;;;18.97;41.96
33191;BME280;19554;42.652;23.364;2023-04-24T12:25:39;94070.69;;;18.95;41.00
33191;BME280;19554;42.652;23.364;2023-04-24T12:30:32;94057.09;;;18.91;41.11
33191;BME280;19554;42.652;23.364;2023-04-24T12:32:59;94058.31;;;18.94;40.60
33191;BME280;19554;42.652;23.364;2023-04-24T12:35:27;94051.44;;;18.81;40.69
33191;BME280;19554;42.652;23.364;2023-04-24T12:37:53;94046.13;;;18.68;41.57
33191;BME280;19554;42.652;23.364;2023-04-24T12:40:20;94038.84;;;18.53;42.32
33191;BME280;19554;42.652;23.364;2023-04-24T12:42:50;94030.66;;;18.34;43.03
33191;BME280;19554;42.652;23.364;2023-04-24T12:45:17;94025.50;;;18.29;43.18
33191;BME280;19554;42.652;23.364;2023-04-24T12:47:44;93986.31;;;17.71;42.58
33191;BME280;19554;42.652;23.364;2023-04-24T12:50:12;94015.16;;;17.99;43.27
33191;BME280;19554;42.652;23.364;2023-04-24T12:52:37;94022.13;;;18.00;43.79
33191;BME280;19554;42.652;23.364;2023-04-24T12:55:04;94010.72;;;18.07;43.45
33191;BME280;19554;42.652;23.364;2023-04-24T12:57:33;94004.00;;;18.16;42.40
33191;BME280;19554;42.652;23.364;2023-04-24T13:00:00;93997.13;;;18.19;41.27
33191;BME280;19554;42.652;23.364;2023-04-24T13:02:28;93980.72;;;18.28;40.88
33191;BME280;19554;42.652;23.364;2023-04-24T13:04:54;93983.16;;;18.33;39.97